Ken Orchid — A8VZ2 — position and weather

sailwx.info

Track history (hours):
 
Tides and Currents Weather Stations Pressure Air Temp Water Temp Dewpoint Dewpoint Depression Visibility Wind Speed Wind Dir Waves Ship Positions

Ken Orchid

Last reported at 2017-Nov-27 07:10 UTC. Time now 2018-Feb-22 03:03 UTC.
Position N 01°15' E 104°06'.
Warning: this ship's position is months out of date.

Length 169 m; draft 9.5 m.

Type: Cargo ship. MMSI: 636014693.

Date/timePositionNaut miles runAvg speedWind from/ knotsBaromVisibWave heightAir tempDewpointWater temp
2017-Nov-27 07:10N 01°15' E 104°06'210.2
2017-Nov-27 07:00N 01°15' E 104°04'3 6.9
2017-Nov-27 06:30N 01°14' E 104°01'2 4.1
2017-Nov-27 06:00N 01°14' E 103°59'2 5.0
2017-Nov-27 05:30N 01°13' E 103°56'4 7.6
2017-Nov-27 05:00N 01°12' E 103°53'4 7.4
2017-Nov-27 04:30N 01°10' E 103°50'4 7.3
2017-Nov-27 04:00N 01°08' E 103°46'4 7.6
2017-Nov-27 03:30N 01°06' E 103°44'4 7.9
2017-Nov-27 02:59N 01°03' E 103°40'4 8.0
2017-Nov-27 02:30N 01°04' E 103°36'4 8.3
2017-Nov-27 01:59N 01°06' E 103°33'4 7.9
2017-Nov-27 01:30N 01°08' E 103°29'510.2
2017-Nov-27 00:58N 01°11' E 103°25'712.4
2017-Nov-27 00:25N 01°15' E 103°19'  
Track history (hours):
 
Tides and Currents Weather Stations Pressure Air Temp Water Temp Dewpoint Dewpoint Depression Visibility Wind Speed Wind Dir Waves Ship Positions

Ken Orchid

Last reported at 2017-Nov-27 07:10 UTC. Time now 2018-Feb-22 03:03 UTC.
Position N 01°15' E 104°06'.
Warning: this ship's position is months out of date.

Length 169 m; draft 9.5 m.

Type: Cargo ship. MMSI: 636014693.

Date/timePositionNaut miles runAvg speedWind from/ knotsBaromVisibWave heightAir tempDewpointWater temp
2017-Nov-27 07:10N 01°15' E 104°06'210.2
2017-Nov-27 07:00N 01°15' E 104°04'3 6.9
2017-Nov-27 06:30N 01°14' E 104°01'2 4.1
2017-Nov-27 06:00N 01°14' E 103°59'2 5.0
2017-Nov-27 05:30N 01°13' E 103°56'4 7.6
2017-Nov-27 05:00N 01°12' E 103°53'4 7.4
2017-Nov-27 04:30N 01°10' E 103°50'4 7.3
2017-Nov-27 04:00N 01°08' E 103°46'4 7.6
2017-Nov-27 03:30N 01°06' E 103°44'4 7.9
2017-Nov-27 02:59N 01°03' E 103°40'4 8.0
2017-Nov-27 02:30N 01°04' E 103°36'4 8.3
2017-Nov-27 01:59N 01°06' E 103°33'4 7.9
2017-Nov-27 01:30N 01°08' E 103°29'510.2
2017-Nov-27 00:58N 01°11' E 103°25'712.4
2017-Nov-27 00:25N 01°15' E 103°19'  

Dump ship's entire track history